createdAt,value
2023-02-24T00:01:51.723Z,101457.66
2023-02-24T00:04:20.712Z,101458.94
2023-02-24T00:06:47.915Z,101450.63
2023-02-24T00:09:17.061Z,101450.63
2023-02-24T00:11:47.940Z,101451.78
2023-02-24T00:14:17.289Z,101455.59
2023-02-24T00:16:45.311Z,101456.75
2023-02-24T00:19:15.048Z,101449.13
2023-02-24T00:21:42.333Z,101445.69
2023-02-24T00:24:09.631Z,101436.06
2023-02-24T00:26:36.652Z,101430.00
2023-02-24T00:29:06.027Z,101428.56
2023-02-24T00:31:33.214Z,101435.66
2023-02-24T00:34:00.963Z,101434.72
2023-02-24T00:36:29.429Z,101426.78
2023-02-24T00:38:58.423Z,101425.09
2023-02-24T00:41:29.500Z,101421.66
2023-02-24T00:43:57.756Z,101417.25
2023-02-24T00:46:26.290Z,101409.66
2023-02-24T00:48:55.594Z,101414.25
2023-02-24T00:51:24.522Z,101407.34
2023-02-24T00:53:53.156Z,101396.91
2023-02-24T00:56:20.958Z,101392.84
2023-02-24T00:58:47.821Z,101388.69
2023-02-24T01:01:17.204Z,101389.75
2023-02-24T01:03:44.681Z,101391.66
2023-02-24T01:06:13.112Z,101380.38
2023-02-24T01:08:47.574Z,101378.09
2023-02-24T01:11:18.430Z,101374.84
2023-02-24T01:13:46.006Z,101363.06
2023-02-24T01:16:14.746Z,101358.81
2023-02-24T01:18:43.818Z,101350.22
2023-02-24T01:21:12.749Z,101352.34
2023-02-24T01:23:39.581Z,101350.09
2023-02-24T01:26:06.407Z,101343.19
2023-02-24T01:28:33.266Z,101340.91
2023-02-24T01:31:02.568Z,101337.56
2023-02-24T01:33:30.322Z,101339.34
2023-02-24T01:35:57.068Z,101343.75
2023-02-24T01:38:23.842Z,101339.47
2023-02-24T01:40:54.400Z,101336.97
2023-02-24T01:43:22.325Z,101328.41
2023-02-24T01:45:52.054Z,101325.91
2023-02-24T01:48:19.020Z,101327.59
2023-02-24T01:50:46.389Z,101323.31
2023-02-24T01:53:13.193Z,101322.38
2023-02-24T01:55:43.778Z,101315.34
2023-02-24T01:58:15.814Z,101321.28
2023-02-24T02:00:45.834Z,101310.84
2023-02-24T02:03:20.277Z,101312.50
2023-02-24T02:05:48.842Z,101312.72
2023-02-24T02:08:17.983Z,101312.84
2023-02-24T02:10:45.125Z,101307.63
2023-02-24T02:13:14.195Z,101303.34
2023-02-24T02:15:47.612Z,101305.34
2023-02-24T02:18:17.724Z,101302.75
2023-02-24T02:50:20.787Z,101261.50
2023-02-24T02:52:50.768Z,101257.94
2023-02-24T02:55:24.106Z,101255.56
2023-02-24T02:57:52.591Z,101255.44
2023-02-24T03:00:23.852Z,101248.44
2023-02-24T03:02:55.502Z,101244.06
2023-02-24T03:05:29.885Z,101237.28
2023-02-24T03:07:58.727Z,101235.63
2023-02-24T03:10:27.975Z,101238.34
2023-02-24T03:12:57.530Z,101225.19
2023-02-24T03:15:26.297Z,101221.38
2023-02-24T03:17:56.489Z,101216.25
2023-02-24T03:20:29.071Z,101213.53
2023-02-24T03:23:01.582Z,101209.16
2023-02-24T03:25:35.216Z,101206.88
2023-02-24T03:28:06.255Z,101202.59
2023-02-24T03:30:40.953Z,101192.25
2023-02-24T03:33:12.786Z,101187.28
2023-02-24T03:35:40.539Z,101187.63
2023-02-24T03:38:07.462Z,101186.19
2023-02-24T03:40:36.263Z,101180.34
2023-02-24T03:43:06.414Z,101174.75
2023-02-24T03:45:35.932Z,101173.28
2023-02-24T03:48:04.149Z,101162.47
2023-02-24T03:50:32.608Z,101165.44
2023-02-24T03:52:59.741Z,101161.03
2023-02-24T03:55:29.834Z,101169.69
2023-02-24T03:58:00.191Z,101164.47
2023-02-24T04:00:34.546Z,101167.91
2023-02-24T04:03:04.537Z,101160.81
2023-02-24T04:05:33.628Z,101152.97
2023-02-24T04:08:03.457Z,101146.69
2023-02-24T04:10:31.680Z,101139.47
2023-02-24T04:13:04.499Z,101136.88
2023-02-24T04:15:38.002Z,101139.34
2023-02-24T04:18:08.081Z,101140.91
2023-02-24T04:20:35.817Z,101134.97
2023-02-24T04:23:08.942Z,101134.13
2023-02-24T04:25:36.288Z,101126.53
2023-02-24T04:28:04.820Z,101116.34
2023-02-24T04:30:34.681Z,101112.16
2023-02-24T04:33:01.493Z,101106.09
2023-02-24T04:35:28.376Z,101105.28
2023-02-24T04:37:55.383Z,101107.03
2023-02-24T04:40:22.640Z,101108.59
2023-02-24T04:42:50.464Z,101109.31
2023-02-24T04:45:17.999Z,101108.50
2023-02-24T04:47:46.329Z,101098.75
2023-02-24T04:50:23.168Z,101099.50
2023-02-24T04:52:50.921Z,101102.09
2023-02-24T04:55:19.573Z,101087.28
2023-02-24T04:57:46.421Z,101094.03
2023-02-24T05:00:21.865Z,101097.22
2023-02-24T05:02:50.464Z,101091.91
2023-02-24T05:05:18.259Z,101091.06
2023-02-24T05:07:47.855Z,101084.06
2023-02-24T05:10:15.486Z,101080.75
2023-02-24T05:12:42.863Z,101081.69
2023-02-24T05:15:09.936Z,101073.97
2023-02-24T05:17:36.868Z,101070.44
2023-02-24T05:20:07.375Z,101074.69
2023-02-24T05:22:34.140Z,101065.41
2023-02-24T05:25:01.434Z,101074.81
2023-02-24T05:27:28.536Z,101060.56
2023-02-24T05:29:55.993Z,101061.41
2023-02-24T05:32:24.520Z,101043.13
2023-02-24T05:34:51.366Z,101045.66
2023-02-24T05:37:18.626Z,101035.28
2023-02-24T05:39:45.458Z,101037.19
2023-02-24T05:42:12.364Z,101028.53
2023-02-24T05:44:39.317Z,101027.72
2023-02-24T05:47:06.259Z,101023.94
2023-02-24T05:49:34.549Z,101021.81
2023-02-24T05:52:07.744Z,101016.94
2023-02-24T05:54:38.183Z,101012.75
2023-02-24T05:57:06.745Z,101005.84
2023-02-24T05:59:34.250Z,101001.59
2023-02-24T06:02:07.641Z,100992.78
2023-02-24T06:04:38.410Z,100996.38
2023-02-24T06:07:08.212Z,100989.72
2023-02-24T06:09:35.421Z,100991.03
2023-02-24T06:12:02.727Z,100983.44
2023-02-24T06:14:29.616Z,100980.22
2023-02-24T06:16:56.385Z,100988.28
2023-02-24T06:19:23.144Z,100981.53
2023-02-24T06:21:53.004Z,100980.81
2023-02-24T06:24:19.901Z,100968.84
2023-02-24T06:26:46.701Z,100962.69
2023-02-24T06:29:15.351Z,100953.41
2023-02-24T06:31:43.284Z,100951.63
2023-02-24T06:34:10.918Z,100951.50
2023-02-24T06:36:38.278Z,100950.47
2023-02-24T06:39:08.329Z,100942.50
2023-02-24T06:41:35.676Z,100945.72
2023-02-24T06:44:02.566Z,100948.19
2023-02-24T06:46:29.984Z,100943.59
2023-02-24T06:48:59.192Z,100947.84
2023-02-24T06:51:30.465Z,100944.16
2023-02-24T06:53:59.747Z,100952.84
2023-02-24T06:56:27.373Z,100934.56
2023-02-24T06:58:57.013Z,100947.63
2023-02-24T07:01:25.993Z,100952.00
2023-02-24T07:03:57.181Z,100943.59
2023-02-24T07:06:24.252Z,100943.81
2023-02-24T07:08:52.252Z,100939.41
2023-02-24T07:11:20.750Z,100935.75
2023-02-24T07:13:48.653Z,100939.06
2023-02-24T07:16:17.815Z,100938.84
2023-02-24T07:18:48.487Z,100931.69
2023-02-24T07:21:18.515Z,100933.38
2023-02-24T07:23:49.919Z,100935.97
2023-02-24T07:26:18.840Z,100929.09
2023-02-24T07:28:48.201Z,100927.41
2023-02-24T07:31:17.450Z,100940.25
2023-02-24T07:33:45.461Z,100933.25
2023-02-24T07:36:15.230Z,100929.66
2023-02-24T07:38:43.133Z,100931.22
2023-02-24T07:41:11.091Z,100927.41
2023-02-24T07:43:38.306Z,100925.09
2023-02-24T07:46:06.398Z,100926.50
2023-02-24T07:48:33.176Z,100932.78
2023-02-24T07:50:59.974Z,100938.47
2023-02-24T07:53:28.241Z,100931.81
2023-02-24T07:55:55.174Z,100940.69
2023-02-24T07:58:23.610Z,100930.69
2023-02-24T08:00:59.782Z,100925.81
2023-02-24T08:03:27.945Z,100920.91
2023-02-24T08:06:02.770Z,100914.34
2023-02-24T08:08:29.895Z,100916.59
2023-02-24T08:11:04.249Z,100906.59
2023-02-24T08:13:37.764Z,100905.25
2023-02-24T08:16:05.607Z,100908.72
2023-02-24T08:18:37.562Z,100902.16
2023-02-24T08:21:05.175Z,100906.06
2023-02-24T08:23:35.004Z,100903.78
2023-02-24T08:26:03.414Z,100903.78
2023-02-24T08:28:30.504Z,100903.13
2023-02-24T08:30:57.473Z,100905.19
2023-02-24T08:33:24.600Z,100903.84
2023-02-24T08:36:01.724Z,100914.88
2023-02-24T08:38:40.244Z,100910.91
2023-02-24T08:41:11.433Z,100908.56
2023-02-24T08:43:39.953Z,100899.59
2023-02-24T08:46:13.855Z,100899.22
2023-02-24T08:48:42.681Z,100896.19
2023-02-24T08:51:10.905Z,100901.34
2023-02-24T08:53:40.838Z,100896.13
2023-02-24T08:56:11.830Z,100889.41
2023-02-24T08:58:41.300Z,100891.91
2023-02-24T09:01:16.117Z,100872.72
2023-02-24T09:03:46.746Z,100882.78
2023-02-24T09:06:17.217Z,100890.34
2023-02-24T09:08:45.743Z,100880.59
2023-02-24T09:11:14.227Z,100880.31
2023-02-24T09:13:51.884Z,100864.47
2023-02-24T09:16:20.301Z,100861.44
2023-02-24T09:19:07.480Z,100868.88
2023-02-24T09:21:37.531Z,100855.50
2023-02-24T09:24:07.539Z,100859.38
2023-02-24T09:26:43.466Z,100853.88
2023-02-24T09:29:17.462Z,100858.53
2023-02-24T09:31:55.672Z,100849.47
2023-02-24T09:34:30.330Z,100838.44
2023-02-24T09:37:00.257Z,100844.09
2023-02-24T09:39:28.272Z,100836.63
2023-02-24T09:41:58.282Z,100837.34
2023-02-24T09:44:33.655Z,100828.09
2023-02-24T09:47:10.761Z,100838.03
2023-02-24T09:49:46.817Z,100824.38
2023-02-24T09:52:17.679Z,100824.06
2023-02-24T09:54:50.723Z,100819.53
2023-02-24T09:57:20.758Z,100817.31
2023-02-24T10:00:01.770Z,100818.38
2023-02-24T10:02:30.403Z,100822.09
2023-02-24T10:05:07.737Z,100822.63
2023-02-24T10:07:39.063Z,100824.00
2023-02-24T10:10:09.979Z,100821.25
2023-02-24T10:12:40.528Z,100815.56
2023-02-24T10:15:13.786Z,100825.09
2023-02-24T10:17:40.858Z,100831.72
2023-02-24T10:20:14.221Z,100820.25
2023-02-24T10:22:51.031Z,100820.94
2023-02-24T10:25:21.556Z,100806.81
2023-02-24T10:27:53.438Z,100816.34
2023-02-24T10:30:28.365Z,100811.94
2023-02-24T10:32:59.861Z,100815.09
2023-02-24T10:35:34.022Z,100816.75
2023-02-24T10:38:05.720Z,100812.03
2023-02-24T10:40:45.510Z,100811.91
2023-02-24T10:43:18.072Z,100808.19
2023-02-24T10:45:46.222Z,100813.25
2023-02-24T10:48:16.338Z,100819.72
2023-02-24T10:50:55.351Z,100816.84
2023-02-24T10:53:28.969Z,100811.16
2023-02-24T10:56:01.601Z,100816.91
2023-02-24T10:58:34.544Z,100821.88
2023-02-24T11:01:07.776Z,100816.22
2023-02-24T11:03:37.875Z,100818.09
2023-02-24T11:06:05.431Z,100803.03
2023-02-24T11:08:37.093Z,100801.06
2023-02-24T11:11:07.449Z,100804.06
2023-02-24T11:13:38.204Z,100807.47
2023-02-24T11:16:11.498Z,100809.50
2023-02-24T11:18:39.501Z,100803.13
2023-02-24T11:21:07.850Z,100807.50
2023-02-24T11:23:35.346Z,100796.91
2023-02-24T11:26:08.533Z,100798.63
2023-02-24T11:28:38.502Z,100792.50
2023-02-24T11:31:08.718Z,100803.38
2023-02-24T11:33:42.848Z,100800.16
2023-02-24T11:36:10.104Z,100787.22
2023-02-24T11:38:41.106Z,100791.06
2023-02-24T11:41:13.643Z,100788.94
2023-02-24T11:43:42.687Z,100783.22
2023-02-24T11:46:09.875Z,100783.06
2023-02-24T11:48:39.366Z,100781.91
2023-02-24T11:51:11.023Z,100776.00
2023-02-24T11:53:45.611Z,100769.91
2023-02-24T11:56:16.180Z,100772.91
2023-02-24T11:58:46.837Z,100776.81
2023-02-24T12:01:16.252Z,100774.50
2023-02-24T12:03:46.361Z,100770.53
2023-02-24T12:06:19.651Z,100769.47
2023-02-24T12:08:49.315Z,100762.88
2023-02-24T12:11:21.969Z,100756.41
2023-02-24T12:13:53.394Z,100759.72
2023-02-24T12:16:24.140Z,100760.69
2023-02-24T12:18:55.698Z,100755.31
2023-02-24T12:21:23.444Z,100755.81
2023-02-24T12:23:53.880Z,100754.69
2023-02-24T12:26:24.363Z,100757.47
2023-02-24T12:28:54.352Z,100752.53
2023-02-24T12:31:22.392Z,100759.72
2023-02-24T12:33:54.005Z,100751.16
2023-02-24T12:36:21.958Z,100747.03
2023-02-24T12:38:59.998Z,100743.06
2023-02-24T12:41:30.018Z,100736.16
2023-02-24T12:43:59.938Z,100741.09
2023-02-24T12:46:30.879Z,100743.25
2023-02-24T12:49:01.381Z,100743.16
2023-02-24T12:51:31.272Z,100742.72
2023-02-24T12:54:01.134Z,100737.97
2023-02-24T12:56:33.736Z,100728.31
2023-02-24T12:59:05.677Z,100729.84
2023-02-24T13:01:35.306Z,100736.22
2023-02-24T13:04:05.597Z,100734.88
2023-02-24T13:06:32.741Z,100727.31
2023-02-24T13:09:02.977Z,100729.13
2023-02-24T13:11:33.091Z,100720.91
2023-02-24T13:14:07.268Z,100718.94
2023-02-24T13:16:35.365Z,100717.16
2023-02-24T13:19:05.372Z,100715.03
2023-02-24T13:21:32.705Z,100729.38
2023-02-24T13:24:01.810Z,100721.16
2023-02-24T13:26:30.481Z,100720.69
2023-02-24T13:29:00.785Z,100717.91
2023-02-24T13:31:28.265Z,100723.16
2023-02-24T13:33:55.273Z,100716.75
2023-02-24T13:36:23.698Z,100703.59
2023-02-24T13:38:53.658Z,100698.66
2023-02-24T13:41:21.643Z,100691.59
2023-02-24T13:43:52.022Z,100691.25
2023-02-24T13:46:19.114Z,100691.47
2023-02-24T13:48:51.480Z,100681.28
2023-02-24T13:51:21.838Z,100686.91
2023-02-24T13:53:51.976Z,100684.75
2023-02-24T13:56:29.807Z,100689.03
2023-02-24T13:58:58.098Z,100682.94
2023-02-24T14:01:27.203Z,100680.16
2023-02-24T14:03:57.224Z,100674.06
2023-02-24T14:06:26.318Z,100682.44
2023-02-24T14:08:55.544Z,100682.09
2023-02-24T14:11:26.502Z,100670.94
2023-02-24T14:13:54.502Z,100670.97
2023-02-24T14:16:25.018Z,100675.59
2023-02-24T14:18:53.511Z,100668.88
2023-02-24T14:21:21.771Z,100672.69
2023-02-24T14:23:55.914Z,100667.75
2023-02-24T14:26:23.584Z,100663.81
2023-02-24T14:28:54.067Z,100667.44
2023-02-24T14:31:24.258Z,100651.50
2023-02-24T14:33:54.483Z,100659.88
2023-02-24T14:36:24.888Z,100657.41
2023-02-24T14:38:55.186Z,100660.72
2023-02-24T14:41:23.750Z,100663.53
2023-02-24T14:43:51.980Z,100671.59
2023-02-24T14:46:31.377Z,100658.91
2023-02-24T14:48:58.909Z,100676.69
2023-02-24T14:51:29.955Z,100676.84
2023-02-24T14:53:59.515Z,100665.81
2023-02-24T14:56:30.651Z,100659.22
2023-02-24T14:59:02.821Z,100666.47
2023-02-24T15:01:34.284Z,100655.41
2023-02-24T15:04:11.278Z,100652.13
2023-02-24T15:06:41.435Z,100657.22
2023-02-24T15:09:13.263Z,100654.59
2023-02-24T15:11:42.454Z,100654.09
2023-02-24T15:14:19.109Z,100647.69
2023-02-24T15:16:47.531Z,100653.31
2023-02-24T15:19:17.591Z,100652.97
2023-02-24T15:21:44.681Z,100648.03
2023-02-24T15:24:14.601Z,100651.66
2023-02-24T15:26:41.624Z,100642.78
2023-02-24T15:29:11.611Z,100640.78
2023-02-24T15:31:41.721Z,100639.81
2023-02-24T15:34:20.238Z,100646.72
2023-02-24T15:36:47.518Z,100640.47
2023-02-24T15:39:20.761Z,100634.53
2023-02-24T15:41:49.197Z,100638.97
2023-02-24T15:44:19.122Z,100646.88
2023-02-24T15:46:47.181Z,100630.75
2023-02-24T15:49:14.137Z,100625.16
2023-02-24T15:51:45.597Z,100628.13
2023-02-24T15:54:13.880Z,100631.06
2023-02-24T15:56:41.853Z,100629.41
2023-02-24T15:59:11.071Z,100628.28
2023-02-24T16:01:38.052Z,100632.94
2023-02-24T16:04:05.478Z,100628.13
2023-02-24T16:06:34.365Z,100632.25
2023-02-24T16:09:05.213Z,100626.19
2023-02-24T16:11:34.665Z,100643.63
2023-02-24T16:14:01.685Z,100641.16
2023-02-24T16:16:28.890Z,100661.72
2023-02-24T16:18:57.012Z,100658.09
2023-02-24T16:21:23.889Z,100656.94
2023-02-24T16:23:51.398Z,100659.56
2023-02-24T16:26:19.710Z,100675.34
2023-02-24T16:28:50.376Z,100668.13
2023-02-24T16:31:18.025Z,100675.69
2023-02-24T16:33:54.589Z,100681.94
2023-02-24T16:36:25.079Z,100682.72
2023-02-24T16:38:52.290Z,100693.56
2023-02-24T16:41:19.389Z,100686.63
2023-02-24T16:43:46.263Z,100689.25
2023-02-24T16:46:16.037Z,100695.97
2023-02-24T16:48:45.671Z,100702.53
2023-02-24T16:51:15.521Z,100705.94
2023-02-24T16:53:44.456Z,100710.41
2023-02-24T16:56:12.844Z,100715.31
2023-02-24T16:58:39.916Z,100712.75
2023-02-24T17:01:07.559Z,100712.28
2023-02-24T17:03:42.166Z,100703.31
2023-02-24T17:06:09.699Z,100717.09
2023-02-24T17:08:37.604Z,100719.25
2023-02-24T17:11:04.948Z,100718.50
2023-02-24T17:13:32.153Z,100713.25
2023-02-24T17:15:59.767Z,100720.63
2023-02-24T17:18:27.438Z,100730.59
2023-02-24T17:20:56.097Z,100730.22
2023-02-24T17:23:23.513Z,100733.00
2023-02-24T17:25:53.604Z,100738.38
2023-02-24T17:28:21.475Z,100733.13
2023-02-24T17:30:49.185Z,100743.66
2023-02-24T17:33:16.553Z,100746.72
2023-02-24T17:35:44.291Z,100737.88
2023-02-24T17:38:13.970Z,100749.50
2023-02-24T17:40:41.521Z,100747.03
2023-02-24T17:43:08.603Z,100748.97
2023-02-24T17:45:36.126Z,100748.81
2023-02-24T17:48:03.380Z,100751.78
2023-02-24T17:50:30.389Z,100754.53
2023-02-24T17:52:58.489Z,100757.28
2023-02-24T17:55:25.756Z,100768.75
2023-02-24T17:57:52.613Z,100770.69
2023-02-24T18:00:19.709Z,100763.63
2023-02-24T18:02:46.675Z,100770.81
2023-02-24T18:05:13.595Z,100780.66
2023-02-24T18:07:40.733Z,100783.41
2023-02-24T18:10:08.216Z,100788.41
2023-02-24T18:12:35.127Z,100781.47
2023-02-24T18:15:08.798Z,100791.97
2023-02-24T18:17:37.616Z,100794.34
2023-02-24T18:20:05.619Z,100796.72
2023-02-24T18:22:32.684Z,100800.19
2023-02-24T18:25:01.242Z,100812.25
2023-02-24T18:27:28.510Z,100803.53
2023-02-24T18:29:55.755Z,100807.25
2023-02-24T18:32:23.193Z,100808.22
2023-02-24T18:34:50.171Z,100809.06
2023-02-24T18:37:17.058Z,100808.78
2023-02-24T18:39:44.010Z,100807.00
2023-02-24T18:42:13.813Z,100820.25
2023-02-24T18:44:40.807Z,100820.38
2023-02-24T18:47:11.103Z,100826.75
2023-02-24T18:49:38.287Z,100827.19
2023-02-24T18:52:05.713Z,100825.97
2023-02-24T18:54:33.315Z,100833.97
2023-02-24T18:57:00.249Z,100848.34
2023-02-24T18:59:27.154Z,100844.06
2023-02-24T19:01:57.132Z,100836.59
2023-02-24T19:04:24.850Z,100836.75
2023-02-24T19:06:51.747Z,100846.69
2023-02-24T19:09:22.054Z,100846.16
2023-02-24T19:11:49.827Z,100840.22
2023-02-24T19:14:16.753Z,100841.19
2023-02-24T19:16:44.056Z,100847.53
2023-02-24T19:19:12.725Z,100843.69
2023-02-24T19:21:39.682Z,100850.19
2023-02-24T19:24:08.732Z,100844.22
2023-02-24T19:26:35.724Z,100860.25
2023-02-24T19:29:04.183Z,100852.66
2023-02-24T19:31:35.811Z,100855.28
2023-02-24T19:34:04.710Z,100850.03
2023-02-24T19:36:32.164Z,100851.28
2023-02-24T19:38:59.071Z,100860.22
2023-02-24T19:41:26.046Z,100857.91
2023-02-24T19:43:53.311Z,100860.81
2023-02-24T19:46:20.489Z,100867.97
2023-02-24T19:48:49.692Z,100868.38
2023-02-24T19:51:18.069Z,100878.88
2023-02-24T19:53:44.975Z,100881.50
2023-02-24T19:56:12.001Z,100880.25
2023-02-24T19:58:39.407Z,100888.13
2023-02-24T20:01:09.600Z,100887.44
2023-02-24T20:03:38.388Z,100894.59
2023-02-24T20:06:05.859Z,100900.81
2023-02-24T20:08:35.062Z,100903.81
2023-02-24T20:11:02.775Z,100902.84
2023-02-24T20:13:29.627Z,100894.00
2023-02-24T20:15:59.967Z,100899.25
2023-02-24T20:18:26.816Z,100901.03
2023-02-24T20:20:57.147Z,100897.72
2023-02-24T20:23:26.494Z,100899.91
2023-02-24T20:25:53.997Z,100908.72
2023-02-24T20:28:21.515Z,100906.94
2023-02-24T20:30:49.441Z,100919.50
2023-02-24T20:33:18.740Z,100926.66
2023-02-24T20:35:45.499Z,100916.19
2023-02-24T20:38:12.672Z,100931.91
2023-02-24T20:40:39.589Z,100932.06
2023-02-24T20:43:07.628Z,100934.81
2023-02-24T20:45:36.380Z,100933.00
2023-02-24T20:48:03.737Z,100945.25
2023-02-24T20:50:30.961Z,100946.09
2023-02-24T20:52:57.821Z,100944.44
2023-02-24T20:55:27.426Z,100938.38
2023-02-24T20:57:56.873Z,100944.44
2023-02-24T21:00:23.771Z,100948.72
2023-02-24T21:02:52.876Z,100949.56
2023-02-24T21:05:25.747Z,100956.69
2023-02-24T21:07:53.150Z,100961.94
2023-02-24T21:10:22.844Z,100968.13
2023-02-24T21:12:50.815Z,100964.00
2023-02-24T21:15:17.849Z,100961.22
2023-02-24T21:17:44.670Z,100965.53
2023-02-24T21:20:12.521Z,100955.03
2023-02-24T21:22:40.659Z,100960.44
2023-02-24T21:25:08.302Z,100956.16
2023-02-24T21:27:35.199Z,100959.59
2023-02-24T21:30:02.115Z,100969.38
2023-02-24T21:32:30.890Z,100972.13
2023-02-24T21:34:57.933Z,100975.44
2023-02-24T21:37:24.946Z,100975.44
2023-02-24T21:39:51.814Z,100968.53
2023-02-24T21:42:18.904Z,100973.22
2023-02-24T21:44:48.792Z,100983.16
2023-02-24T21:47:15.629Z,100983.38
2023-02-24T21:49:42.479Z,100974.41
2023-02-24T21:52:11.681Z,100991.91
2023-02-24T21:54:38.636Z,100989.28
2023-02-24T21:57:05.885Z,100991.75
2023-02-24T21:59:32.959Z,101001.28
2023-02-24T22:02:00.021Z,100986.69
2023-02-24T22:04:26.932Z,100985.00
2023-02-24T22:06:53.670Z,100995.38
2023-02-24T22:09:20.717Z,100999.19
2023-02-24T22:11:48.460Z,100997.91
2023-02-24T22:14:15.580Z,100998.19
2023-02-24T22:16:42.687Z,100988.22
2023-02-24T22:19:09.760Z,100996.47
2023-02-24T22:21:37.355Z,101000.03
2023-02-24T22:24:04.294Z,101004.19
2023-02-24T22:26:32.320Z,100995.94
2023-02-24T22:28:59.518Z,100999.53
2023-02-24T22:31:28.193Z,100995.25
2023-02-24T22:33:55.150Z,101000.63
2023-02-24T22:36:25.352Z,101008.59
2023-02-24T22:38:52.709Z,101006.81
2023-02-24T22:41:21.074Z,101005.03
2023-02-24T22:43:48.199Z,101005.72
2023-02-24T22:46:16.809Z,101007.66
2023-02-24T22:48:44.035Z,101012.06
2023-02-24T22:51:12.126Z,101001.59
2023-02-24T22:53:40.424Z,101001.69
2023-02-24T22:56:07.804Z,101009.94
2023-02-24T22:58:34.721Z,101008.16
2023-02-24T23:01:01.634Z,101013.50
2023-02-24T23:03:31.188Z,101016.00
2023-02-24T23:05:59.502Z,101010.78
2023-02-24T23:08:26.977Z,101004.31
2023-02-24T23:10:54.234Z,101017.13
2023-02-24T23:13:22.255Z,101018.81
2023-02-24T23:15:49.603Z,101009.88
2023-02-24T23:18:16.754Z,101022.13
2023-02-24T23:20:45.073Z,101022.38
2023-02-24T23:23:11.971Z,101016.56
2023-02-24T23:25:39.044Z,101017.78
2023-02-24T23:28:06.575Z,101025.78
2023-02-24T23:30:33.426Z,101020.81
2023-02-24T23:33:01.222Z,101029.59
2023-02-24T23:35:29.506Z,101026.53
2023-02-24T23:37:56.429Z,101038.22
2023-02-24T23:40:26.539Z,101033.94
2023-02-24T23:42:55.013Z,101042.28
2023-02-24T23:45:22.220Z,101038.16
2023-02-24T23:47:49.716Z,101039.94
2023-02-24T23:50:17.357Z,101039.09
2023-02-24T23:52:44.705Z,101051.47
2023-02-24T23:55:12.161Z,101048.03
2023-02-24T23:57:40.190Z,101046.25
